MCY weather

Sunshine Coast Airport
Maroochydore, Queensland, Australia

Public forecast

Using degrees Celsius for public forecast. Weather courtesy of forecast.io.

METAR (pilot weather report)

Closest report is Brisbane International Airport, 46.9 nm (86.9 km) S. Retrieved 2017/05/24 07:30 UTC (16 minutes ago):

YBBN 240730Z 01007KT 9999 FEW022 20/19 Q1015 NOSIG

TAF (pilot weather forecast)

Closest forecast is Brisbane International Airport, 46.9 nm (86.9 km) S. Retrieved 2017/05/24 06:00 UTC (2 hours ago):

TAF YBBN 240514Z 2406/2512 02008KT CAVOK FM240900 32005KT CAVOK FM241400 22006KT CAVOK FM242100 19008KT 9999 FEW030 FM250100 13010KT 9999 FEW035 SCT050 FM250900 17005KT 9999 SCT040